Terminal Aerodrome Forecast
Issued by NWS

Home | Current Version | Previous Version | Text Only | Print | Product List | Glossary On
Versions: 1 2 3 4 5 6 7 8 9 10 11 12
000
FTUS45 KRIW 290500
TAFRKS
TAF
KRKS 290525Z 2906/3006 28008KT P6SM VCSH BKN120
     FM291400 05008KT P6SM VCSH SCT040 OVC060
     FM291900 06011KT P6SM VCTS FEW030 OVC050CB
     FM300130 06015KT 6SM SHRA SCT030 OVC050=

USA.gov is the U.S. government's official web portal to all federal, state and local government web resources and services.